PST,Max TemperatureF,Mean TemperatureF,Min TemperatureF,Max Dew PointF,MeanDew PointF,Min DewpointF,Max Humidity, Mean Humidity, Min Humidity, Max Sea Level PressureIn, Mean Sea Level PressureIn, Min Sea Level PressureIn, Max VisibilityMiles, Mean VisibilityMiles, Min VisibilityMiles, Max Wind SpeedMPH, Mean Wind SpeedMPH, Max Gust SpeedMPH,PrecipitationIn, CloudCover, Events, WindDirDegrees
2012-12-1,32,30,28,32,30,27,100,99,93,29.68,29.61,29.53,10,3,0,17,10,34,0.63,8,Fog-Rain-Snow,203
2012-12-2,30,27,24,31,26,24,100,97,92,29.83,29.49,29.12,5,1,0,14,8,32,1.58,8,Fog-Snow,218
2012-12-3,30,28,26,28,27,25,100,95,86,30.12,29.95,29.79,10,2,0,17,11,36,0.62,8,Fog-Rain-Snow,226
2012-12-4,34,30,26,34,29,24,100,95,86,29.98,29.80,29.64,10,1,0,20,9,34,1.12,7,Fog-Rain-Snow,179
2012-12-5,35,29,21,36,29,16,100,94,69,30.04,29.76,29.57,10,4,0,21,13,47,0.44,8,Fog-Rain-Snow,244
2012-12-6,24,22,19,21,19,17,100,96,86,30.15,29.95,29.79,10,2,0,8,5,16,0.45,8,Fog-Snow,242
2012-12-7,26,22,19,22,20,16,93,86,80,29.99,29.71,29.57,10,2,0,15,8,31,0.67,8,Fog-Rain-Snow,295
2012-12-8,19,16,10,16,11,6,88,81,73,30.27,29.90,29.68,10,4,0,14,7,30,0.10,8,Fog-Snow,316
2012-12-9,23,14,8,19,12,5,96,87,79,30.38,30.15,29.98,10,3,1,12,6,24,0.04,8,Rain-Snow,251
2012-12-10,28,24,21,25,20,18,93,83,74,30.19,30.04,29.90,10,1,0,12,6,28,0.00,8,Fog-Rain-Snow,316
2012-12-11,28,26,24,27,25,23,100,94,80,29.96,29.60,29.45,10,2,0,14,7,32,0.27,8,Fog-Rain-Snow,233
2012-12-12,26,24,21,25,23,19,100,95,91,29.91,29.61,29.45,10,3,0,7,3,,0.15,8,Fog-Snow,242
2012-12-13,21,19,16,20,18,14,96,91,85,29.98,29.85,29.71,10,7,1,8,5,,0.00,6,Rain-Snow,201
2012-12-14,19,17,15,18,17,13,100,94,84,29.90,29.73,29.60,10,5,1,9,4,,0.03,7,Rain-Snow,206
2012-12-15,21,19,17,18,17,15,100,90,80,29.89,29.65,29.44,10,5,0,9,3,20,0.02,8,Fog-Snow,203
2012-12-16,23,20,17,19,17,15,100,89,82,29.76,29.53,29.19,4,1,0,12,6,26,0.45,8,Fog-Snow,226
2012-12-17,28,22,15,27,19,12,100,89,80,29.71,29.37,29.14,4,1,0,22,12,45,1.00,8,Fog-Snow,223
2012-12-18,16,14,12,16,12,10,100,93,86,29.95,29.70,29.58,9,2,0,14,6,33,0.20,8,Fog-Snow,253
2012-12-19,19,16,12,16,12,10,96,91,81,30.07,29.86,29.73,10,3,0,13,5,24,0.29,8,Fog-Snow,221
2012-12-20,26,22,19,23,19,16,96,86,74,30.02,29.82,29.74,10,3,0,17,7,38,0.18,8,Fog-Rain-Snow,182
2012-12-21,30,26,23,27,24,19,100,94,80,29.94,29.80,29.72,10,2,0,14,7,30,0.25,8,Fog-Snow,180
2012-12-22,30,27,24,27,25,21,93,89,80,29.83,29.66,29.56,10,4,0,14,6,28,0.19,7,Fog-Snow,198
2012-12-23,26,22,19,22,20,18,100,90,80,29.91,29.74,29.51,10,6,0,12,6,26,0.27,7,Fog-Snow,143
2012-12-24,24,22,19,21,19,16,100,91,80,30.12,29.82,29.54,10,2,0,9,4,20,0.26,8,Fog-Snow,221
2012-12-25,21,19,17,18,15,12,86,83,78,30.14,29.84,29.64,10,2,0,8,3,,0.03,8,Fog-Snow,156
2012-12-26,25,22,19,20,18,15,86,82,80,29.85,29.69,29.61,7,1,0,7,3,,0.01,8,Fog-Snow,175
2012-12-27,25,23,21,20,18,17,86,84,80,30.06,29.90,29.76,3,0,0,6,2,,0.07,8,Fog-Rain-Snow,319
2012-12-28,24,20,17,19,17,15,93,86,80,30.17,30.04,29.92,10,4,0,7,2,,0.01,7,Fog-Snow,202
2012-12-29,18,16,12,16,14,11,93,91,84,30.17,30.01,29.89,10,8,2,6,3,,0.00,7,Snow,191
2012-12-30,15,14,12,13,11,10,100,89,79,30.26,30.07,29.93,10,4,0,6,3,,0.00,8,Fog-Snow,338
2012-12-31,17,14,12,12,11,9,92,83,79,30.37,30.15,30.01,2,1,0,6,2,,0.01,8,Fog-Snow,324